Time;durP1;ratioP1;P1;durP2;ratioP2;P2;SDS_P1;SDS_P2;PMS_P1;PMS_P2;Temp;Humidity;BMP_temperature;BMP_pressure;BME280_temperature;BME280_humidity;BME280_pressure;Samples;Min_cycle;Max_cycle;Signal;HPM_P1;HPM_P2
2021/08/07 00:00:45;;;;;;;20.25;14.13;;;;;;;;;;2125279;27;20126;-46
2021/08/07 00:01:46;;;;;;;23.67;13.82;;;;;;;;;;2131477;27;20045;-46
2021/08/07 00:02:48;;;;;;;18.13;14.07;;;;;;;;;;2131714;27;20161;-46
2021/08/07 00:03:49;;;;;;;22.80;15.13;;;;;;;;;;2129628;27;20039;-47
2021/08/07 00:04:59;;;;;;;19.42;13.40;;;;;;;;;;2131101;27;20042;-46
2021/08/07 00:06:00;;;;;;;19.60;13.60;;;;;;;;;;2131813;27;20038;-47
2021/08/07 00:07:01;;;;;;;18.55;13.18;;;;;;;;;;2130345;27;20478;-46
2021/08/07 00:08:02;;;;;;;18.40;13.50;;;;;;;;;;2123068;28;20043;-46
2021/08/07 00:09:03;;;;;;;20.23;13.43;;;;;;;;;;2123250;28;20468;-46
2021/08/07 00:10:07;;;;;;;20.13;14.27;;;;;;;;;;2128543;27;20039;-46
2021/08/07 00:11:08;;;;;;;23.02;13.10;;;;;;;;;;2131795;27;20326;-45
2021/08/07 00:12:10;;;;;;;23.63;13.93;;;;;;;;;;2131192;27;20174;-47
2021/08/07 00:13:10;;;;;;;;;;;;;;;;;;2130132;27;20047;-47
2021/08/07 00:14:12;;;;;;;18.85;12.70;;;;;;;;;;2131693;27;20349;-46
2021/08/07 00:15:13;;;;;;;21.08;13.98;;;;;;;;;;2131201;27;20426;-45
2021/08/07 00:16:14;;;;;;;22.93;14.70;;;;;;;;;;2129575;27;20047;-46
2021/08/07 00:17:15;;;;;;;21.38;14.13;;;;;;;;;;2131498;27;20054;-46
2021/08/07 00:18:16;;;;;;;19.60;12.77;;;;;;;;;;2130725;27;20418;-46
2021/08/07 00:19:17;;;;;;;20.33;13.27;;;;;;;;;;2130218;27;20039;-45
2021/08/07 00:20:18;;;;;;;21.70;13.80;;;;;;;;;;2131741;27;20054;-46
2021/08/07 00:21:19;;;;;;;19.08;13.82;;;;;;;;;;2129917;27;20059;-46
2021/08/07 00:22:20;;;;;;;20.27;13.05;;;;;;;;;;2130057;27;20129;-46
2021/08/07 00:23:21;;;;;;;18.67;12.43;;;;;;;;;;2131668;27;20061;-46
2021/08/07 00:24:22;;;;;;;17.87;12.67;;;;;;;;;;2129638;27;20402;-46
2021/08/07 00:25:23;;;;;;;19.75;13.20;;;;;;;;;;2131101;27;20411;-46
2021/08/07 00:26:24;;;;;;;22.07;13.23;;;;;;;;;;2131663;27;20058;-46
2021/08/07 00:27:26;;;;;;;19.42;13.43;;;;;;;;;;2129502;27;20389;-46
2021/08/07 00:28:27;;;;;;;21.48;13.98;;;;;;;;;;2131126;27;20046;-47
2021/08/07 00:29:33;;;;;;;19.20;13.65;;;;;;;;;;2131579;27;20514;-46
2021/08/07 00:30:34;;;;;;;16.98;12.55;;;;;;;;;;2129340;27;20067;-46
2021/08/07 00:31:35;;;;;;;22.65;13.45;;;;;;;;;;2131417;27;20502;-46
2021/08/07 00:32:36;;;;;;;16.58;13.10;;;;;;;;;;2131548;27;20048;-47
2021/08/07 00:33:37;;;;;;;19.02;13.73;;;;;;;;;;2129262;27;20047;-45
2021/08/07 00:34:38;;;;;;;20.57;13.83;;;;;;;;;;2131304;27;20046;-46
2021/08/07 00:35:39;;;;;;;18.88;12.57;;;;;;;;;;2131608;27;20300;-46
2021/08/07 00:36:40;;;;;;;18.33;13.20;;;;;;;;;;2129022;27;20099;-47
2021/08/07 00:37:41;;;;;;;19.00;13.20;;;;;;;;;;2131370;27;20137;-46
2021/08/07 00:38:42;;;;;;;18.77;12.60;;;;;;;;;;2131663;27;20125;-47
2021/08/07 00:39:43;;;;;;;20.65;12.50;;;;;;;;;;2128863;27;20129;-45
2021/08/07 00:40:44;;;;;;;18.97;14.43;;;;;;;;;;2131657;27;20042;-47
2021/08/07 00:41:45;;;;;;;22.08;13.38;;;;;;;;;;2131392;27;20157;-47
2021/08/07 00:42:47;;;;;;;19.17;11.65;;;;;;;;;;2128975;27;20479;-46
2021/08/07 00:43:48;;;;;;;17.80;11.57;;;;;;;;;;2131466;27;20569;-46
2021/08/07 00:44:49;;;;;;;21.23;13.70;;;;;;;;;;2131289;27;20155;-46
2021/08/07 00:45:50;;;;;;;16.17;12.43;;;;;;;;;;2129487;27;20058;-45
2021/08/07 00:46:51;;;;;;;19.50;12.48;;;;;;;;;;2131550;27;20074;-46
2021/08/07 00:47:52;;;;;;;17.42;13.07;;;;;;;;;;2130820;27;20433;-46
2021/08/07 00:48:53;;;;;;;21.23;13.20;;;;;;;;;;2129453;27;20125;-46
2021/08/07 00:49:54;;;;;;;17.70;12.73;;;;;;;;;;2131403;27;20046;-46
2021/08/07 00:50:55;;;;;;;19.98;13.68;;;;;;;;;;2130248;27;20645;-45
2021/08/07 00:51:56;;;;;;;19.42;13.18;;;;;;;;;;2130195;27;20043;-46
2021/08/07 00:52:57;;;;;;;14.57;11.90;;;;;;;;;;2122901;27;20134;-46
2021/08/07 00:53:59;;;;;;;19.75;12.25;;;;;;;;;;2123751;27;20130;-46
2021/08/07 00:55:00;;;;;;;20.35;12.15;;;;;;;;;;2130068;27;20133;-47
2021/08/07 00:56:01;;;;;;;17.35;12.38;;;;;;;;;;2130245;27;20565;-46
2021/08/07 00:57:03;;;;;;;16.15;12.05;;;;;;;;;;2124290;27;20058;-47
2021/08/07 00:58:04;;;;;;;21.00;12.77;;;;;;;;;;2129623;27;20125;-46
2021/08/07 00:59:06;;;;;;;16.20;11.82;;;;;;;;;;2130472;27;20134;-46
2021/08/07 01:00:07;;;;;;;16.25;11.85;;;;;;;;;;2129326;27;20039;-46
2021/08/07 01:01:09;;;;;;;17.37;11.90;;;;;;;;;;2130972;27;20055;-46
2021/08/07 01:02:12;;;;;;;17.10;11.75;;;;;;;;;;2131177;27;20049;-45
2021/08/07 01:03:20;;;;;;;19.42;12.18;;;;;;;;;;2129211;27;20639;-46
2021/08/07 01:04:22;;;;;;;16.73;10.90;;;;;;;;;;2130783;27;20087;-47
2021/08/07 01:05:25;;;;;;;16.05;11.73;;;;;;;;;;2131267;27;20507;-46
2021/08/07 01:06:28;;;;;;;18.80;12.00;;;;;;;;;;2127386;27;20046;-46
2021/08/07 01:07:31;;;;;;;15.23;11.65;;;;;;;;;;2131199;27;20051;-46
2021/08/07 01:08:37;;;;;;;20.70;12.35;;;;;;;;;;2130776;27;20047;-46
2021/08/07 01:09:45;;;;;;;15.98;11.90;;;;;;;;;;2129397;27;20050;-46
2021/08/07 01:10:48;;;;;;;15.18;11.13;;;;;;;;;;2131338;27;20152;-46
2021/08/07 01:11:51;;;;;;;17.30;11.45;;;;;;;;;;2129310;27;20122;-47
2021/08/07 01:12:56;;;;;;;18.13;12.05;;;;;;;;;;2130644;27;20051;-46
2021/08/07 01:14:00;;;;;;;15.10;11.00;;;;;;;;;;2131409;27;20054;-47
2021/08/07 01:15:03;;;;;;;19.08;11.60;;;;;;;;;;2129082;27;20043;-46
2021/08/07 01:16:05;;;;;;;15.82;11.38;;;;;;;;;;2131062;27;20074;-46
2021/08/07 01:17:09;;;;;;;16.25;11.02;;;;;;;;;;2131160;27;20590;-46
2021/08/07 01:18:12;;;;;;;19.77;11.98;;;;;;;;;;2128841;27;20133;-46
2021/08/07 01:19:14;;;;;;;17.70;11.25;;;;;;;;;;2130999;27;20130;-45
2021/08/07 01:20:17;;;;;;;16.00;10.82;;;;;;;;;;2131153;27;20046;-47
2021/08/07 01:21:20;;;;;;;16.08;11.23;;;;;;;;;;2128902;27;20141;-46
2021/08/07 01:22:25;;;;;;;16.27;11.10;;;;;;;;;;2131011;27;20194;-46
2021/08/07 01:23:34;;;;;;;19.48;11.23;;;;;;;;;;2130740;27;20628;-46
2021/08/07 01:24:36;;;;;;;15.07;11.70;;;;;;;;;;2130048;27;20043;-47
2021/08/07 01:25:41;;;;;;;13.45;9.38;;;;;;;;;;2131260;27;20133;-46
2021/08/07 01:26:48;;;;;;;15.48;11.20;;;;;;;;;;2129387;27;20056;-46
2021/08/07 01:27:49;;;;;;;14.35;10.77;;;;;;;;;;2130193;27;20106;-46
2021/08/07 01:28:52;;;;;;;11.35;8.88;;;;;;;;;;2131061;27;20704;-45
2021/08/07 01:29:54;;;;;;;15.05;10.30;;;;;;;;;;2128899;27;20047;-46
2021/08/07 01:30:55;;;;;;;15.35;10.85;;;;;;;;;;2130922;27;20106;-47
2021/08/07 01:31:57;;;;;;;14.82;10.75;;;;;;;;;;2131274;27;20051;-46
2021/08/07 01:32:58;;;;;;;14.98;9.80;;;;;;;;;;2128746;27;20130;-46
2021/08/07 01:34:00;;;;;;;13.17;9.80;;;;;;;;;;2131023;27;20039;-45
2021/08/07 01:35:01;;;;;;;14.95;9.77;;;;;;;;;;2131248;27;20366;-45
2021/08/07 01:36:03;;;;;;;13.60;9.90;;;;;;;;;;2128512;27;20489;-46
2021/08/07 01:37:04;;;;;;;11.52;9.52;;;;;;;;;;2131143;27;20065;-45
2021/08/07 01:38:05;;;;;;;14.63;10.93;;;;;;;;;;2131030;27;20553;-46
2021/08/07 01:39:06;;;;;;;13.32;10.82;;;;;;;;;;2128747;27;20065;-47
2021/08/07 01:40:08;;;;;;;15.10;9.85;;;;;;;;;;2130976;27;20187;-45
2021/08/07 01:41:13;;;;;;;14.63;9.05;;;;;;;;;;2130706;27;20046;-46
2021/08/07 01:42:14;;;;;;;16.23;10.30;;;;;;;;;;2128993;27;20074;-46
2021/08/07 01:43:16;;;;;;;11.63;9.68;;;;;;;;;;2131165;27;20047;-45
2021/08/07 01:44:17;;;;;;;11.32;9.57;;;;;;;;;;2130314;27;20176;-46
2021/08/07 01:45:18;;;;;;;16.55;9.05;;;;;;;;;;2129630;27;20137;-46
2021/08/07 01:46:19;;;;;;;14.10;9.77;;;;;;;;;;2131001;27;20103;-46
2021/08/07 01:47:20;;;;;;;;;;;;;;;;;;2129805;27;20286;-46
2021/08/07 01:48:26;;;;;;;11.43;8.27;;;;;;;;;;2130445;27;19918;-45
2021/08/07 01:49:29;;;;;;;10.65;7.45;;;;;;;;;;2131004;27;20043;-47
2021/08/07 01:50:33;;;;;;;15.27;8.98;;;;;;;;;;2128921;27;20043;-45
2021/08/07 01:51:38;;;;;;;13.32;9.07;;;;;;;;;;2130574;27;20045;-46
2021/08/07 01:52:41;;;;;;;13.05;8.48;;;;;;;;;;2124920;27;20039;-46
2021/08/07 01:53:43;;;;;;;14.88;9.38;;;;;;;;;;2126199;27;20113;-47
2021/08/07 01:54:44;;;;;;;;;;;;;;;;;;2131271;27;20081;-46
2021/08/07 01:55:48;;;;;;;13.63;9.10;;;;;;;;;;2131055;27;19919;-45
2021/08/07 01:56:50;;;;;;;11.05;8.15;;;;;;;;;;2128652;27;20053;-46
2021/08/07 01:57:50;;;;;;;;;;;;;;;;;;2131398;27;20039;-45
2021/08/07 01:58:55;;;;;;;11.02;8.15;;;;;;;;;;2130871;27;19966;-46
2021/08/07 01:59:57;;;;;;;10.63;8.32;;;;;;;;;;2127740;27;20071;-47
2021/08/07 02:00:59;;;;;;;11.32;9.32;;;;;;;;;;2131007;27;20043;-45
2021/08/07 02:02:01;;;;;;;12.25;9.40;;;;;;;;;;2130461;27;20494;-46
2021/08/07 02:03:02;;;;;;;;;;;;;;;;;;2129245;27;20042;-46
2021/08/07 02:04:04;;;;;;;12.02;8.27;;;;;;;;;;2131048;27;19923;-45
2021/08/07 02:05:05;;;;;;;14.40;8.38;;;;;;;;;;2129804;27;20591;-46
2021/08/07 02:06:07;;;;;;;11.43;8.98;;;;;;;;;;2129758;27;20455;-46
2021/08/07 02:07:08;;;;;;;12.30;9.00;;;;;;;;;;2130792;27;20518;-46
2021/08/07 02:08:10;;;;;;;12.20;9.25;;;;;;;;;;2128914;27;20046;-46
2021/08/07 02:09:11;;;;;;;10.60;8.77;;;;;;;;;;2130242;27;20051;-47
2021/08/07 02:10:13;;;;;;;12.73;8.27;;;;;;;;;;2131676;27;20125;-45
2021/08/07 02:11:15;;;;;;;13.23;8.57;;;;;;;;;;2130361;27;20499;-46
2021/08/07 02:12:16;;;;;;;12.52;9.20;;;;;;;;;;2132222;27;20053;-45
2021/08/07 02:13:18;;;;;;;13.33;9.50;;;;;;;;;;2132515;27;20498;-46
2021/08/07 02:14:18;;;;;;;;;;;;;;;;;;2130830;27;20130;-45
2021/08/07 02:15:21;;;;;;;12.73;9.60;;;;;;;;;;2132029;27;19919;-45
2021/08/07 02:16:22;;;;;;;10.90;9.55;;;;;;;;;;2132128;27;20063;-46
2021/08/07 02:17:24;;;;;;;11.30;9.43;;;;;;;;;;2129976;27;20042;-46
2021/08/07 02:18:25;;;;;;;11.93;8.77;;;;;;;;;;2132008;27;20077;-46
2021/08/07 02:19:27;;;;;;;15.82;10.02;;;;;;;;;;2132200;27;20095;-45
2021/08/07 02:20:28;;;;;;;11.63;9.05;;;;;;;;;;2129844;27;20413;-46
2021/08/07 02:21:29;;;;;;;14.10;9.93;;;;;;;;;;2132016;27;20130;-46
2021/08/07 02:22:31;;;;;;;12.30;8.95;;;;;;;;;;2132150;27;20056;-46
2021/08/07 02:23:32;;;;;;;14.25;8.93;;;;;;;;;;2129769;27;20042;-45
2021/08/07 02:24:33;;;;;;;11.63;8.45;;;;;;;;;;2132136;27;20051;-46
2021/08/07 02:25:34;;;;;;;11.13;7.77;;;;;;;;;;2132175;27;20471;-45
2021/08/07 02:26:36;;;;;;;15.48;9.43;;;;;;;;;;2129997;27;20125;-46
2021/08/07 02:27:37;;;;;;;12.13;9.02;;;;;;;;;;2131854;27;20054;-45
2021/08/07 02:28:38;;;;;;;9.65;8.27;;;;;;;;;;2130132;27;20051;-46
2021/08/07 02:29:40;;;;;;;13.55;8.85;;;;;;;;;;2131535;27;20130;-46
2021/08/07 02:30:41;;;;;;;13.15;10.05;;;;;;;;;;2132063;27;20137;-46
2021/08/07 02:31:42;;;;;;;;;;;;;;;;;;2130703;27;20401;-46
2021/08/07 02:32:44;;;;;;;10.88;8.18;;;;;;;;;;2131647;27;19922;-45
2021/08/07 02:33:45;;;;;;;9.15;7.15;;;;;;;;;;2132328;27;20126;-45
2021/08/07 02:34:48;;;;;;;11.65;7.25;;;;;;;;;;2130434;27;20054;-46
2021/08/07 02:35:50;;;;;;;10.25;7.65;;;;;;;;;;2131998;27;20051;-46
2021/08/07 02:36:51;;;;;;;10.75;7.63;;;;;;;;;;2132252;27;20087;-45
2021/08/07 02:37:52;;;;;;;;;;;;;;;;;;2130528;27;20054;-45
2021/08/07 02:38:54;;;;;;;9.40;6.80;;;;;;;;;;2131348;27;20328;-47
2021/08/07 02:39:55;;;;;;;9.20;7.55;;;;;;;;;;2131558;27;20117;-48
2021/08/07 02:40:57;;;;;;;10.02;7.70;;;;;;;;;;2129199;27;20038;-47
2021/08/07 02:41:58;;;;;;;11.80;7.57;;;;;;;;;;2132108;27;20577;-45
2021/08/07 02:43:00;;;;;;;8.98;7.93;;;;;;;;;;2132180;27;20133;-46
2021/08/07 02:44:02;;;;;;;9.60;6.75;;;;;;;;;;2129811;27;20129;-46
2021/08/07 02:45:02;;;;;;;;;;;;;;;;;;2132810;27;20118;-45
2021/08/07 02:46:04;;;;;;;8.70;6.10;;;;;;;;;;2132183;27;19971;-46
2021/08/07 02:47:06;;;;;;;7.55;6.28;;;;;;;;;;2129722;27;20050;-46
2021/08/07 02:48:07;;;;;;;7.72;6.55;;;;;;;;;;2131998;27;20173;-46
2021/08/07 02:49:08;;;;;;;8.17;7.03;;;;;;;;;;2125820;27;20055;-46
2021/08/07 02:50:10;;;;;;;10.60;7.00;;;;;;;;;;2130098;27;20042;-46
2021/08/07 02:51:11;;;;;;;9.80;6.72;;;;;;;;;;2132377;27;20143;-46
2021/08/07 02:52:12;;;;;;;11.05;6.95;;;;;;;;;;2130251;27;20042;-46
2021/08/07 02:53:13;;;;;;;7.97;6.47;;;;;;;;;;2130185;27;20078;-46
2021/08/07 02:54:14;;;;;;;9.40;6.32;;;;;;;;;;2132132;27;20405;-45
2021/08/07 02:55:15;;;;;;;10.33;7.70;;;;;;;;;;2131217;27;20046;-45
2021/08/07 02:56:16;;;;;;;8.40;6.53;;;;;;;;;;2130921;27;20133;-45
2021/08/07 02:57:17;;;;;;;12.67;7.03;;;;;;;;;;2132245;27;20043;-46
2021/08/07 02:58:19;;;;;;;8.38;6.90;;;;;;;;;;2130196;27;20075;-45
2021/08/07 02:59:20;;;;;;;9.70;6.60;;;;;;;;;;2131762;27;20042;-45
2021/08/07 03:00:21;;;;;;;7.97;6.15;;;;;;;;;;2132225;27;20125;-45
2021/08/07 03:01:23;;;;;;;7.03;5.87;;;;;;;;;;2130036;27;20050;-44
2021/08/07 03:02:24;;;;;;;9.48;6.88;;;;;;;;;;2130805;27;20078;-43
2021/08/07 03:03:25;;;;;;;8.48;6.78;;;;;;;;;;2132212;27;20127;-43
2021/08/07 03:04:26;;;;;;;6.40;5.72;;;;;;;;;;2130041;27;20089;-45
2021/08/07 03:05:27;;;;;;;8.40;6.63;;;;;;;;;;2131811;27;20507;-46
2021/08/07 03:06:28;;;;;;;9.13;6.75;;;;;;;;;;2132112;27;20589;-45
2021/08/07 03:07:29;;;;;;;11.27;7.20;;;;;;;;;;2129781;27;20047;-45
2021/08/07 03:08:30;;;;;;;7.70;6.03;;;;;;;;;;2132003;27;20126;-44
2021/08/07 03:09:31;;;;;;;11.82;6.35;;;;;;;;;;2132092;27;20050;-44
2021/08/07 03:10:32;;;;;;;7.72;6.78;;;;;;;;;;2129826;27;20042;-44
2021/08/07 03:11:33;;;;;;;11.70;7.40;;;;;;;;;;2131820;27;20043;-46
2021/08/07 03:12:35;;;;;;;9.73;6.70;;;;;;;;;;2131964;27;20126;-45
2021/08/07 03:13:36;;;;;;;9.25;7.13;;;;;;;;;;2129697;27;20140;-43
2021/08/07 03:14:37;;;;;;;9.60;7.35;;;;;;;;;;2131931;27;20099;-44
2021/08/07 03:15:38;;;;;;;10.17;7.50;;;;;;;;;;2132201;27;20498;-45
2021/08/07 03:16:39;;;;;;;9.73;6.90;;;;;;;;;;2129460;27;20566;-44
2021/08/07 03:17:41;;;;;;;11.95;7.18;;;;;;;;;;2132041;27;20057;-45
2021/08/07 03:18:41;;;;;;;11.13;7.57;;;;;;;;;;2131976;27;20482;-45
2021/08/07 03:19:43;;;;;;;10.67;7.57;;;;;;;;;;2129487;27;20038;-45
2021/08/07 03:20:43;;;;;;;11.13;7.53;;;;;;;;;;2132108;27;20134;-47
2021/08/07 03:21:45;;;;;;;15.73;8.43;;;;;;;;;;2130429;27;20099;-45
2021/08/07 03:22:46;;;;;;;11.73;8.02;;;;;;;;;;2129985;27;20149;-45
2021/08/07 03:23:47;;;;;;;9.85;7.82;;;;;;;;;;2131965;27;20054;-45
2021/08/07 03:24:48;;;;;;;16.52;9.25;;;;;;;;;;2131453;27;20597;-45
2021/08/07 03:25:49;;;;;;;8.73;7.33;;;;;;;;;;2129967;27;20045;-46
2021/08/07 03:26:50;;;;;;;10.13;8.20;;;;;;;;;;2131953;27;20177;-43
2021/08/07 03:27:51;;;;;;;12.00;8.20;;;;;;;;;;2131240;27;20103;-45
2021/08/07 03:28:53;;;;;;;13.52;8.20;;;;;;;;;;2130757;27;20112;-45
2021/08/07 03:29:54;;;;;;;10.73;7.23;;;;;;;;;;2131899;27;20155;-44
2021/08/07 03:30:55;;;;;;;10.05;7.25;;;;;;;;;;2130476;27;20038;-45
2021/08/07 03:31:57;;;;;;;12.48;7.25;;;;;;;;;;2130503;27;20058;-44
2021/08/07 03:32:58;;;;;;;;;;;;;;;;;;2132253;27;20043;-45
2021/08/07 03:33:59;;;;;;;14.82;8.30;;;;;;;;;;2130042;27;19923;-44
2021/08/07 03:34:59;;;;;;;9.98;7.55;;;;;;;;;;2131383;27;20126;-45
2021/08/07 03:36:01;;;;;;;10.33;7.43;;;;;;;;;;2132069;27;20057;-45
2021/08/07 03:37:02;;;;;;;10.82;7.82;;;;;;;;;;2129696;27;20478;-44
2021/08/07 03:38:03;;;;;;;11.40;7.68;;;;;;;;;;2131646;27;20192;-44
2021/08/07 03:39:04;;;;;;;9.77;8.00;;;;;;;;;;2131922;27;20047;-46
2021/08/07 03:40:06;;;;;;;9.98;7.25;;;;;;;;;;2129774;27;20061;-44
2021/08/07 03:41:07;;;;;;;9.68;7.60;;;;;;;;;;2130714;27;20133;-44
2021/08/07 03:42:08;;;;;;;10.40;7.47;;;;;;;;;;2131954;27;20054;-44
2021/08/07 03:43:09;;;;;;;8.13;6.72;;;;;;;;;;2129683;27;20092;-44
2021/08/07 03:44:10;;;;;;;8.90;6.93;;;;;;;;;;2131584;27;20175;-43
2021/08/07 03:45:12;;;;;;;9.35;5.65;;;;;;;;;;2127382;27;20054;-46
2021/08/07 03:46:13;;;;;;;8.90;7.43;;;;;;;;;;2125871;27;20103;-44
2021/08/07 03:47:15;;;;;;;8.23;7.07;;;;;;;;;;2131721;27;20071;-45
2021/08/07 03:48:16;;;;;;;9.70;6.82;;;;;;;;;;2131729;27;20062;-44
2021/08/07 03:49:17;;;;;;;8.50;6.63;;;;;;;;;;2129418;27;20133;-44
2021/08/07 03:50:18;;;;;;;10.07;7.30;;;;;;;;;;2131863;27;20130;-44
2021/08/07 03:51:19;;;;;;;9.52;6.75;;;;;;;;;;2131945;27;20043;-46
2021/08/07 03:52:20;;;;;;;7.30;6.03;;;;;;;;;;2126874;27;20053;-45
2021/08/07 03:53:21;;;;;;;8.80;5.83;;;;;;;;;;2131846;27;20121;-44
2021/08/07 03:54:22;;;;;;;9.43;6.75;;;;;;;;;;2131485;27;20050;-46
2021/08/07 03:55:23;;;;;;;9.07;6.10;;;;;;;;;;2129698;27;20049;-44
2021/08/07 03:56:24;;;;;;;10.68;6.28;;;;;;;;;;2131767;27;20558;-44
2021/08/07 03:57:25;;;;;;;7.17;5.77;;;;;;;;;;2131332;27;20047;-44
2021/08/07 03:58:26;;;;;;;7.05;6.05;;;;;;;;;;2129853;27;20362;-44
2021/08/07 03:59:27;;;;;;;8.03;6.13;;;;;;;;;;2131695;27;20487;-45
2021/08/07 04:00:29;;;;;;;7.03;6.32;;;;;;;;;;2131108;27;20133;-45
2021/08/07 04:01:30;;;;;;;7.10;6.28;;;;;;;;;;2130094;27;20509;-46
2021/08/07 04:02:32;;;;;;;7.28;6.00;;;;;;;;;;2131702;27;20058;-45
2021/08/07 04:03:33;;;;;;;6.47;5.50;;;;;;;;;;2130081;27;20053;-46
2021/08/07 04:04:52;;;;;;;11.57;6.22;;;;;;;;;;2130775;27;20042;-44
2021/08/07 04:05:53;;;;;;;8.55;6.03;;;;;;;;;;2131763;27;20134;-46
2021/08/07 04:06:54;;;;;;;7.93;6.67;;;;;;;;;;2129577;27;20637;-45
2021/08/07 04:07:59;;;;;;;8.73;6.03;;;;;;;;;;2131488;27;20129;-45
2021/08/07 04:09:00;;;;;;;8.90;5.85;;;;;;;;;;2131641;27;20389;-44
2021/08/07 04:10:01;;;;;;;8.13;5.90;;;;;;;;;;2129408;27;20047;-46
2021/08/07 04:11:02;;;;;;;7.73;5.63;;;;;;;;;;2131549;27;20042;-47
2021/08/07 04:12:03;;;;;;;9.88;6.63;;;;;;;;;;2131724;27;20098;-44
2021/08/07 04:13:04;;;;;;;6.53;5.37;;;;;;;;;;2129136;27;20133;-44
2021/08/07 04:14:06;;;;;;;9.32;5.68;;;;;;;;;;2131748;27;20042;-45
2021/08/07 04:15:07;;;;;;;8.25;6.38;;;;;;;;;;2131619;27;20046;-46
2021/08/07 04:16:08;;;;;;;6.18;5.50;;;;;;;;;;2129635;27;20054;-47
2021/08/07 04:17:10;;;;;;;7.55;5.40;;;;;;;;;;2131577;27;20053;-45
2021/08/07 04:18:11;;;;;;;8.10;6.20;;;;;;;;;;2131202;27;20410;-44
2021/08/07 04:19:13;;;;;;;6.78;5.60;;;;;;;;;;2129545;27;20673;-46
2021/08/07 04:20:13;;;;;;;6.63;5.57;;;;;;;;;;2131795;27;20129;-45
2021/08/07 04:21:14;;;;;;;8.43;5.87;;;;;;;;;;2131240;27;20050;-45
2021/08/07 04:22:15;;;;;;;7.30;5.28;;;;;;;;;;2129359;27;20488;-45
2021/08/07 04:23:16;;;;;;;9.30;5.73;;;;;;;;;;2131750;27;20084;-44
2021/08/07 04:24:17;;;;;;;7.38;6.13;;;;;;;;;;2130028;27;20081;-46
2021/08/07 04:25:18;;;;;;;6.83;5.90;;;;;;;;;;2130596;27;20050;-44
2021/08/07 04:26:19;;;;;;;7.85;5.80;;;;;;;;;;2131609;27;20138;-46
2021/08/07 04:27:20;;;;;;;7.97;5.33;;;;;;;;;;2129774;27;20047;-47
2021/08/07 04:28:21;;;;;;;9.80;6.03;;;;;;;;;;2130804;27;20138;-44
2021/08/07 04:29:22;;;;;;;8.15;5.78;;;;;;;;;;2131527;27;20462;-44
2021/08/07 04:30:23;;;;;;;9.33;6.03;;;;;;;;;;2129667;27;20050;-47
2021/08/07 04:31:24;;;;;;;6.70;5.07;;;;;;;;;;2131302;27;20042;-45
2021/08/07 04:32:26;;;;;;;6.82;4.55;;;;;;;;;;2131561;27;20046;-45
2021/08/07 04:33:27;;;;;;;5.65;4.78;;;;;;;;;;2129053;27;20047;-47
2021/08/07 04:34:29;;;;;;;8.60;5.78;;;;;;;;;;2131211;27;20050;-45
2021/08/07 04:35:30;;;;;;;6.53;5.53;;;;;;;;;;2131532;27;20562;-44
2021/08/07 04:36:31;;;;;;;8.07;5.22;;;;;;;;;;2129345;27;20046;-44
2021/08/07 04:37:43;;;;;;;8.40;5.70;;;;;;;;;;2131216;27;20474;-45
2021/08/07 04:38:43;;;;;;;7.90;5.40;;;;;;;;;;2131621;27;20046;-45
2021/08/07 04:39:45;;;;;;;6.27;5.33;;;;;;;;;;2129016;27;20042;-45
2021/08/07 04:40:46;;;;;;;6.38;5.18;;;;;;;;;;2131543;27;20126;-45
2021/08/07 04:41:47;;;;;;;7.43;5.45;;;;;;;;;;2131284;27;20043;-45
2021/08/07 04:42:49;;;;;;;7.32;4.93;;;;;;;;;;2128835;27;20430;-45
2021/08/07 04:43:50;;;;;;;7.65;4.97;;;;;;;;;;2131465;27;20038;-44
2021/08/07 04:44:51;;;;;;;6.40;4.87;;;;;;;;;;2130520;27;20042;-46
2021/08/07 04:45:52;;;;;;;5.20;4.70;;;;;;;;;;2129542;27;20365;-44
2021/08/07 04:46:53;;;;;;;8.05;4.63;;;;;;;;;;2131430;27;20049;-44
2021/08/07 04:47:56;;;;;;;5.38;4.88;;;;;;;;;;2131207;27;20046;-44
2021/08/07 04:48:57;;;;;;;8.95;4.53;;;;;;;;;;2129608;27;20054;-44
2021/08/07 04:49:58;;;;;;;6.45;4.88;;;;;;;;;;2131373;27;20489;-45
2021/08/07 04:50:59;;;;;;;5.57;4.40;;;;;;;;;;2129984;27;20047;-44
2021/08/07 04:52:01;;;;;;;6.23;4.00;;;;;;;;;;2130760;27;20047;-45
2021/08/07 04:53:02;;;;;;;6.53;4.85;;;;;;;;;;2122222;27;20567;-47
2021/08/07 04:54:04;;;;;;;7.15;4.60;;;;;;;;;;2123952;27;20047;-44
2021/08/07 04:55:05;;;;;;;5.18;3.85;;;;;;;;;;2130892;27;20619;-44
2021/08/07 04:56:06;;;;;;;9.90;4.60;;;;;;;;;;2131370;27;20178;-45
2021/08/07 04:57:07;;;;;;;6.95;4.32;;;;;;;;;;2129321;27;20047;-45
2021/08/07 04:58:10;;;;;;;5.50;4.20;;;;;;;;;;2130397;27;20057;-45
2021/08/07 04:59:11;;;;;;;5.47;4.72;;;;;;;;;;2131314;27;20555;-46
2021/08/07 05:00:12;;;;;;;5.93;4.53;;;;;;;;;;2129353;27;20043;-44
2021/08/07 05:01:13;;;;;;;5.90;4.80;;;;;;;;;;2130220;27;20183;-44
2021/08/07 05:02:15;;;;;;;5.78;3.90;;;;;;;;;;2131211;27;20456;-45
2021/08/07 05:03:16;;;;;;;7.68;4.55;;;;;;;;;;2129298;27;20043;-44
2021/08/07 05:04:18;;;;;;;6.65;4.13;;;;;;;;;;2130965;27;20103;-44
2021/08/07 05:05:19;;;;;;;5.20;4.03;;;;;;;;;;2131223;27;20043;-46
2021/08/07 05:06:20;;;;;;;4.93;3.80;;;;;;;;;;2128884;27;20046;-44
2021/08/07 05:07:21;;;;;;;4.72;4.15;;;;;;;;;;2131008;27;20046;-44
2021/08/07 05:08:22;;;;;;;5.57;4.23;;;;;;;;;;2131338;27;20193;-45
2021/08/07 05:09:23;;;;;;;4.72;3.65;;;;;;;;;;2127360;27;20095;-45
2021/08/07 05:10:24;;;;;;;8.63;4.33;;;;;;;;;;2131290;27;20086;-46
2021/08/07 05:11:25;;;;;;;5.95;4.30;;;;;;;;;;2131351;27;20126;-45
2021/08/07 05:12:27;;;;;;;5.93;4.47;;;;;;;;;;2128936;27;20387;-45
2021/08/07 05:13:28;;;;;;;8.52;4.63;;;;;;;;;;2131185;27;20490;-44
2021/08/07 05:14:29;;;;;;;4.85;4.18;;;;;;;;;;2130720;27;20567;-44
2021/08/07 05:15:30;;;;;;;5.90;4.37;;;;;;;;;;2129324;27;20055;-45
2021/08/07 05:16:31;;;;;;;6.75;4.80;;;;;;;;;;2131150;27;20677;-45
2021/08/07 05:17:33;;;;;;;7.78;5.30;;;;;;;;;;2130821;27;20053;-45
2021/08/07 05:18:33;;;;;;;6.43;4.38;;;;;;;;;;2128026;27;20126;-46
2021/08/07 05:19:35;;;;;;;8.97;4.90;;;;;;;;;;2131307;27;20047;-45
2021/08/07 05:20:36;;;;;;;6.82;4.65;;;;;;;;;;2130368;27;20125;-45
2021/08/07 05:21:37;;;;;;;7.95;4.63;;;;;;;;;;2129918;27;20187;-45
2021/08/07 05:22:39;;;;;;;6.30;4.38;;;;;;;;;;2131227;27;20129;-45
2021/08/07 05:23:39;;;;;;;4.50;4.10;;;;;;;;;;2129743;27;20545;-44
2021/08/07 05:24:41;;;;;;;4.90;3.73;;;;;;;;;;2130434;27;20035;-43
2021/08/07 05:25:42;;;;;;;6.65;3.55;;;;;;;;;;2131060;27;20035;-44
2021/08/07 05:26:43;;;;;;;6.28;3.97;;;;;;;;;;2129298;27;20134;-45
2021/08/07 05:27:44;;;;;;;4.30;3.20;;;;;;;;;;2130353;27;20054;-47
2021/08/07 05:28:45;;;;;;;3.85;3.45;;;;;;;;;;2128262;27;20324;-45
2021/08/07 05:29:46;;;;;;;4.90;3.85;;;;;;;;;;2126187;27;20114;-47
2021/08/07 05:30:48;;;;;;;6.25;3.80;;;;;;;;;;2130808;27;20122;-44
2021/08/07 05:31:49;;;;;;;5.90;3.50;;;;;;;;;;2130651;27;20102;-45
2021/08/07 05:32:50;;;;;;;5.20;4.07;;;;;;;;;;2128531;27;20175;-44
2021/08/07 05:33:50;;;;;;;18.15;4.95;;;;;;;;;;2129706;27;20137;-45
2021/08/07 05:34:52;;;;;;;11.70;4.97;;;;;;;;;;2130623;27;20068;-45
2021/08/07 05:35:53;;;;;;;7.95;4.63;;;;;;;;;;2128328;27;20133;-44
2021/08/07 05:36:54;;;;;;;5.07;4.23;;;;;;;;;;2130484;27;20043;-44
2021/08/07 05:37:55;;;;;;;4.75;3.85;;;;;;;;;;2130415;27;20050;-44
2021/08/07 05:38:56;;;;;;;5.03;3.58;;;;;;;;;;2126038;27;20046;-45
2021/08/07 05:39:57;;;;;;;6.75;3.40;;;;;;;;;;2130535;27;20126;-49
2021/08/07 05:40:58;;;;;;;6.37;3.60;;;;;;;;;;2130492;27;20560;-45
2021/08/07 05:41:59;;;;;;;4.50;3.20;;;;;;;;;;2127036;27;20042;-45
2021/08/07 05:43:00;;;;;;;3.77;3.30;;;;;;;;;;2124187;27;20426;-45
2021/08/07 05:44:01;;;;;;;4.18;3.78;;;;;;;;;;2129976;27;20455;-46
2021/08/07 05:45:02;;;;;;;5.43;3.83;;;;;;;;;;2128281;27;20856;-45
2021/08/07 05:46:04;;;;;;;5.65;3.42;;;;;;;;;;2130515;27;20048;-45
2021/08/07 05:47:05;;;;;;;4.85;3.65;;;;;;;;;;2130591;27;20038;-45
2021/08/07 05:48:06;;;;;;;4.20;3.53;;;;;;;;;;2128704;27;20527;-45
2021/08/07 05:49:07;;;;;;;4.20;3.72;;;;;;;;;;2130823;27;20153;-44
2021/08/07 05:50:10;;;;;;;3.95;3.30;;;;;;;;;;2130272;27;20628;-43
2021/08/07 05:51:11;;;;;;;6.18;3.67;;;;;;;;;;2128792;27;20129;-44
2021/08/07 05:52:12;;;;;;;9.40;3.50;;;;;;;;;;2128580;27;20046;-43
2021/08/07 05:53:12;;;;;;;21.58;4.30;;;;;;;;;;2128885;27;20114;-45
2021/08/07 05:54:14;;;;;;;5.57;3.83;;;;;;;;;;2128816;27;20042;-44
2021/08/07 05:55:14;;;;;;;7.65;4.43;;;;;;;;;;2130608;27;20139;-45
2021/08/07 05:56:15;;;;;;;4.70;3.50;;;;;;;;;;2129033;27;20046;-43
2021/08/07 05:57:17;;;;;;;5.95;4.05;;;;;;;;;;2129587;27;20043;-44
2021/08/07 05:58:18;;;;;;;4.38;3.85;;;;;;;;;;2130447;27;20046;-45
2021/08/07 05:59:19;;;;;;;6.65;4.25;;;;;;;;;;2128376;27;20050;-44
2021/08/07 06:00:20;;;;;;;5.73;4.47;;;;;;;;;;2130040;27;20126;-43
2021/08/07 06:01:21;;;;;;;3.92;3.53;;;;;;;;;;2127693;27;20074;-44
2021/08/07 06:02:22;;;;;;;5.07;3.70;;;;;;;;;;2128465;27;20141;-45
2021/08/07 06:03:24;;;;;;;5.82;3.72;;;;;;;;;;2128794;27;20477;-44
2021/08/07 06:04:25;;;;;;;7.25;3.83;;;;;;;;;;2130327;27;20133;-45
2021/08/07 06:05:27;;;;;;;6.47;3.17;;;;;;;;;;2128225;27;20043;-46
2021/08/07 06:06:27;;;;;;;;;;;;;;;;;;2130552;27;20115;-43